createdAt,value
2018-04-08T00:02:04.554Z,57.00
2018-04-08T00:04:32.402Z,57.00
2018-04-08T00:07:00.155Z,57.10
2018-04-08T00:09:28.008Z,56.90
2018-04-08T00:11:55.858Z,56.70
2018-04-08T00:14:23.607Z,56.80
2018-04-08T00:16:51.460Z,57.00
2018-04-08T00:19:19.310Z,57.20
2018-04-08T00:21:47.165Z,57.10
2018-04-08T00:24:15.015Z,57.20
2018-04-08T00:26:42.695Z,57.30
2018-04-08T00:29:11.229Z,57.30
2018-04-08T00:31:39.081Z,57.30
2018-04-08T00:34:06.757Z,57.60
2018-04-08T00:36:35.400Z,57.60
2018-04-08T00:39:03.099Z,57.50
2018-04-08T00:41:30.814Z,57.30
2018-04-08T00:43:59.466Z,57.40
2018-04-08T00:46:27.317Z,57.40
2018-04-08T00:48:55.169Z,57.50
2018-04-08T00:51:22.922Z,57.60
2018-04-08T00:56:54.260Z,57.50
2018-04-08T00:59:22.043Z,57.60
2018-04-08T01:01:50.677Z,57.50
2018-04-08T01:04:18.426Z,57.40
2018-04-08T01:06:46.279Z,57.60
2018-04-08T01:09:14.130Z,57.60
2018-04-08T01:11:41.982Z,57.70
2018-04-08T01:14:09.732Z,57.70
2018-04-08T01:16:37.584Z,57.60
2018-04-08T01:19:05.537Z,57.50
2018-04-08T01:21:33.286Z,57.60
2018-04-08T01:24:01.039Z,57.90
2018-04-08T01:26:28.888Z,58.60
2018-04-08T01:28:56.636Z,57.90
2018-04-08T01:31:24.589Z,58.00
2018-04-08T01:33:52.448Z,58.00
2018-04-08T01:36:20.297Z,58.00
2018-04-08T01:38:48.046Z,57.90
2018-04-08T01:41:15.897Z,57.70
2018-04-08T01:43:43.646Z,57.60
2018-04-08T01:46:11.402Z,57.30
2018-04-08T01:48:39.248Z,57.20
2018-04-08T01:51:06.996Z,57.10
2018-04-08T01:53:34.850Z,56.90
2018-04-08T01:56:02.597Z,56.90
2018-04-08T01:58:30.453Z,56.90
2018-04-08T02:00:58.198Z,56.70
2018-04-08T02:03:26.055Z,56.80
2018-04-08T02:05:54.010Z,57.00
2018-04-08T02:08:21.858Z,56.80
2018-04-08T02:10:49.715Z,56.70
2018-04-08T02:13:17.460Z,56.60
2018-04-08T02:15:45.313Z,56.80
2018-04-08T02:18:13.061Z,57.50
2018-04-08T02:20:40.810Z,57.10
2018-04-08T02:23:08.868Z,57.30
2018-04-08T02:25:36.615Z,57.30
2018-04-08T02:28:04.365Z,57.40
2018-04-08T02:30:32.220Z,57.40
2018-04-08T02:33:00.071Z,57.40
2018-04-08T02:35:27.922Z,57.30
2018-04-08T02:37:55.713Z,57.20
2018-04-08T02:40:23.525Z,57.20
2018-04-08T02:42:51.318Z,57.40
2018-04-08T02:45:19.131Z,57.40
2018-04-08T02:47:46.979Z,57.10
2018-04-08T02:50:14.829Z,56.90
2018-04-08T02:52:42.682Z,56.50
2018-04-08T02:55:10.532Z,56.40
2018-04-08T02:57:38.384Z,56.20
2018-04-08T03:00:06.240Z,56.10
2018-04-08T03:02:34.090Z,55.80
2018-04-08T03:05:01.940Z,55.80
2018-04-08T03:07:29.689Z,56.00
2018-04-08T03:09:57.540Z,55.80
2018-04-08T03:12:25.392Z,55.60
2018-04-08T03:14:53.247Z,55.70
2018-04-08T03:17:20.996Z,55.90
2018-04-08T03:19:48.846Z,56.00
2018-04-08T03:22:16.599Z,55.90
2018-04-08T03:24:44.447Z,55.70
2018-04-08T03:27:12.197Z,55.70
2018-04-08T03:29:39.992Z,55.70
2018-04-08T03:32:07.800Z,55.80
2018-04-08T03:34:35.547Z,55.60
2018-04-08T03:37:03.401Z,55.70
2018-04-08T03:39:31.250Z,55.90
2018-04-08T03:41:59.102Z,56.10
2018-04-08T03:44:26.861Z,56.50
2018-04-08T03:46:55.217Z,56.60
2018-04-08T03:49:23.070Z,56.80
2018-04-08T03:51:50.925Z,56.80
2018-04-08T03:54:18.775Z,56.80
2018-04-08T03:56:46.626Z,56.70
2018-04-08T03:59:14.478Z,56.60
2018-04-08T04:01:42.329Z,56.70
2018-04-08T04:04:10.179Z,57.10
2018-04-08T04:06:38.034Z,57.30
2018-04-08T04:09:06.703Z,57.20
2018-04-08T04:11:34.556Z,57.10
2018-04-08T04:14:02.407Z,57.20
2018-04-08T04:16:30.264Z,57.50
2018-04-08T04:19:09.885Z,57.30
2018-04-08T04:21:49.515Z,57.50
2018-04-08T04:24:29.343Z,57.50
2018-04-08T04:26:57.092Z,57.50
2018-04-08T04:29:25.355Z,57.20
2018-04-08T04:31:53.108Z,57.20
2018-04-08T04:34:20.958Z,57.30
2018-04-08T04:36:48.706Z,57.30
2018-04-08T04:39:16.560Z,57.10
2018-04-08T04:41:44.410Z,56.90
2018-04-08T04:44:12.261Z,56.80
2018-04-08T04:46:40.011Z,56.70
2018-04-08T04:49:07.816Z,56.70
2018-04-08T04:51:35.716Z,57.00
2018-04-08T04:54:03.464Z,57.20
2018-04-08T04:56:31.317Z,57.20
2018-04-08T04:58:59.166Z,57.20
2018-04-08T05:01:27.017Z,57.40
2018-04-08T05:03:54.870Z,57.30
2018-04-08T05:06:22.929Z,57.30
2018-04-08T05:08:50.679Z,57.30
2018-04-08T05:11:18.633Z,57.30
2018-04-08T05:13:46.383Z,57.30
2018-04-08T05:16:14.134Z,57.00
2018-04-08T05:18:41.983Z,57.10
2018-04-08T05:21:09.732Z,57.30
2018-04-08T05:23:37.583Z,57.50
2018-04-08T05:26:05.332Z,57.60
2018-04-08T05:28:33.184Z,57.70
2018-04-08T05:31:00.936Z,58.00
2018-04-08T05:33:28.792Z,58.00
2018-04-08T05:35:56.640Z,57.80
2018-04-08T05:38:24.387Z,57.70
2018-04-08T05:40:52.241Z,57.70
2018-04-08T05:43:20.092Z,57.90
2018-04-08T05:45:47.947Z,58.50
2018-04-08T05:48:15.796Z,58.80
2018-04-08T05:50:43.546Z,59.10
2018-04-08T05:53:11.504Z,59.30
2018-04-08T05:55:39.350Z,59.70
2018-04-08T05:58:07.107Z,60.20
2018-04-08T06:00:34.954Z,60.60
2018-04-08T06:03:02.806Z,61.00
2018-04-08T06:05:30.655Z,61.10
2018-04-08T06:07:58.507Z,61.80
2018-04-08T06:10:27.080Z,62.30
2018-04-08T06:12:54.823Z,63.00
2018-04-08T06:15:22.685Z,63.90
2018-04-08T06:17:50.532Z,65.10
2018-04-08T06:20:18.281Z,64.40
2018-04-08T06:22:46.133Z,64.70
2018-04-08T06:25:13.983Z,64.70
2018-04-08T06:27:41.735Z,64.80
2018-04-08T06:30:09.587Z,64.90
2018-04-08T06:32:37.338Z,65.00
2018-04-08T06:35:05.083Z,65.40
2018-04-08T06:37:32.937Z,65.60
2018-04-08T06:40:00.787Z,65.70
2018-04-08T06:42:29.997Z,65.40
2018-04-08T06:44:57.822Z,65.30
2018-04-08T06:47:25.673Z,65.20
2018-04-08T06:49:53.425Z,65.20
2018-04-08T06:52:21.276Z,65.60
2018-04-08T06:54:49.026Z,65.50
2018-04-08T06:57:16.776Z,65.60
2018-04-08T06:59:44.572Z,65.70
2018-04-08T07:02:12.376Z,66.50
2018-04-08T07:04:40.229Z,65.80
2018-04-08T07:07:08.086Z,65.50
2018-04-08T07:09:35.931Z,65.60
2018-04-08T07:12:03.809Z,65.50
2018-04-08T07:14:32.453Z,66.00
2018-04-08T07:17:00.202Z,65.90
2018-04-08T07:19:28.054Z,65.90
2018-04-08T07:21:55.905Z,65.90
2018-04-08T07:24:23.659Z,65.90
2018-04-08T07:26:51.511Z,65.40
2018-04-08T07:29:19.364Z,65.70
2018-04-08T07:31:47.213Z,65.40
2018-04-08T07:34:15.068Z,65.60
2018-04-08T07:36:42.917Z,65.80
2018-04-08T07:39:10.667Z,66.00
2018-04-08T07:41:38.520Z,65.90
2018-04-08T07:44:06.369Z,65.90
2018-04-08T07:46:34.221Z,65.90
2018-04-08T07:49:02.074Z,66.20
2018-04-08T07:51:29.927Z,66.20
2018-04-08T07:53:57.776Z,66.20
2018-04-08T07:56:25.628Z,65.80
2018-04-08T07:58:53.482Z,66.40
2018-04-08T08:01:21.334Z,66.10
2018-04-08T08:03:49.083Z,66.70
2018-04-08T08:06:16.935Z,66.40
2018-04-08T08:08:44.894Z,66.50
2018-04-08T08:11:12.787Z,66.50
2018-04-08T08:13:40.593Z,66.00
2018-04-08T08:16:17.488Z,66.70
2018-04-08T08:18:45.926Z,66.70
2018-04-08T08:21:14.592Z,67.10
2018-04-08T08:23:42.687Z,67.10
2018-04-08T08:26:10.502Z,67.20
2018-04-08T08:28:38.343Z,68.40
2018-04-08T08:31:06.309Z,68.50
2018-04-08T08:33:34.260Z,67.40
2018-04-08T08:36:02.111Z,67.00
2018-04-08T08:38:29.968Z,67.50
2018-04-08T08:40:57.712Z,67.70
2018-04-08T08:43:25.974Z,67.70
2018-04-08T08:45:53.730Z,67.40
2018-04-08T08:48:21.476Z,67.50
2018-04-08T08:50:49.327Z,67.10
2018-04-08T08:53:17.077Z,67.10
2018-04-08T08:55:44.930Z,67.70
2018-04-08T08:58:12.680Z,66.90
2018-04-08T09:00:40.530Z,67.40
2018-04-08T09:03:08.279Z,66.50
2018-04-08T09:05:36.038Z,66.70
2018-04-08T09:08:03.881Z,67.00
2018-04-08T09:10:31.737Z,67.00
2018-04-08T09:12:59.586Z,67.30
2018-04-08T09:15:27.434Z,67.80
2018-04-08T09:17:55.798Z,67.50
2018-04-08T09:23:39.729Z,67.50
2018-04-08T09:26:07.581Z,68.20
2018-04-08T09:28:35.432Z,68.20
2018-04-08T09:31:03.183Z,68.60
2018-04-08T09:33:31.033Z,68.60
2018-04-08T09:35:58.832Z,68.40
2018-04-08T09:38:26.740Z,68.30
2018-04-08T09:40:54.589Z,68.40
2018-04-08T09:43:22.343Z,67.50
2018-04-08T09:45:50.193Z,67.90
2018-04-08T09:48:18.044Z,67.70
2018-04-08T09:50:45.794Z,67.30
2018-04-08T09:53:13.651Z,67.10
2018-04-08T09:55:41.497Z,67.40
2018-04-08T09:58:14.162Z,67.50
2018-04-08T10:00:47.746Z,67.80
2018-04-08T10:06:17.649Z,67.40
2018-04-08T10:08:45.399Z,68.00
2018-04-08T10:11:13.968Z,67.70
2018-04-08T10:13:41.820Z,67.30
2018-04-08T10:16:09.673Z,67.00
2018-04-08T10:18:37.526Z,67.20
2018-04-08T10:21:05.337Z,67.70
2018-04-08T10:23:33.225Z,67.90
2018-04-08T10:26:00.975Z,69.00
2018-04-08T10:28:28.826Z,68.60
2018-04-08T10:30:56.577Z,68.70
2018-04-08T10:33:24.438Z,69.20
2018-04-08T10:35:52.284Z,68.80
2018-04-08T10:38:20.134Z,69.20
2018-04-08T10:40:47.987Z,68.70
2018-04-08T10:43:15.838Z,68.40
2018-04-08T10:45:43.688Z,69.00
2018-04-08T10:48:11.541Z,69.20
2018-04-08T10:50:39.393Z,68.90
2018-04-08T10:53:07.246Z,69.10
2018-04-08T10:55:34.994Z,69.10
2018-04-08T10:58:02.850Z,69.30
2018-04-08T11:00:30.697Z,69.00
2018-04-08T11:02:58.552Z,69.40
2018-04-08T11:05:26.400Z,69.50
2018-04-08T11:07:54.360Z,68.80
2018-04-08T11:10:22.229Z,68.90
2018-04-08T11:12:49.923Z,69.10
2018-04-08T11:15:17.830Z,69.90
2018-04-08T11:17:45.580Z,69.40
2018-04-08T11:20:13.434Z,69.40
2018-04-08T11:22:41.180Z,69.50
2018-04-08T11:25:09.032Z,69.90
2018-04-08T11:27:36.883Z,69.70
2018-04-08T11:30:04.632Z,69.00
2018-04-08T11:32:32.487Z,68.50
2018-04-08T11:35:00.336Z,68.20
2018-04-08T11:37:28.190Z,68.40
2018-04-08T11:39:56.040Z,68.40
2018-04-08T11:42:23.894Z,68.90
2018-04-08T11:44:51.644Z,69.30
2018-04-08T11:47:19.420Z,68.30
2018-04-08T11:49:47.347Z,67.30
2018-04-08T11:52:15.040Z,68.50
2018-04-08T11:54:42.846Z,68.50
2018-04-08T11:57:10.696Z,67.70
2018-04-08T11:59:38.652Z,67.20
2018-04-08T12:02:06.552Z,67.10
2018-04-08T12:04:34.354Z,67.10
2018-04-08T12:07:02.104Z,67.00
2018-04-08T12:09:29.847Z,67.10
2018-04-08T12:11:57.657Z,66.10
2018-04-08T12:14:25.435Z,64.30
2018-04-08T12:16:54.077Z,65.50
2018-04-08T12:19:21.927Z,65.30
2018-04-08T12:21:49.678Z,67.70
2018-04-08T12:24:17.527Z,67.80
2018-04-08T12:26:55.411Z,67.60
2018-04-08T12:29:23.266Z,67.60
2018-04-08T12:31:51.122Z,67.50
2018-04-08T12:34:18.970Z,67.70
2018-04-08T12:36:46.825Z,68.80
2018-04-08T12:39:14.673Z,68.80
2018-04-08T12:41:42.525Z,67.70
2018-04-08T12:44:10.274Z,67.60
2018-04-08T12:46:37.989Z,67.10
2018-04-08T12:49:05.878Z,66.50
2018-04-08T12:51:33.627Z,67.80
2018-04-08T12:54:01.478Z,67.60
2018-04-08T12:56:29.224Z,65.30
2018-04-08T12:58:57.076Z,64.70
2018-04-08T13:01:24.835Z,65.00
2018-04-08T13:03:52.681Z,66.90
2018-04-08T13:06:20.429Z,65.40
2018-04-08T13:08:48.281Z,65.40
2018-04-08T13:11:16.030Z,67.70
2018-04-08T13:13:43.884Z,67.40
2018-04-08T13:16:11.736Z,66.00
2018-04-08T13:18:39.586Z,67.10
2018-04-08T13:21:07.438Z,67.00
2018-04-08T13:23:35.289Z,67.70
2018-04-08T13:26:03.142Z,68.50
2018-04-08T13:28:30.890Z,68.30
2018-04-08T13:30:58.744Z,68.90
2018-04-08T13:33:26.594Z,67.30
2018-04-08T13:35:54.345Z,67.80
2018-04-08T13:38:22.197Z,63.60
2018-04-08T13:40:49.947Z,66.50
2018-04-08T13:43:17.696Z,67.90
2018-04-08T13:45:45.550Z,67.80
2018-04-08T13:48:13.402Z,68.90
2018-04-08T13:50:41.251Z,68.80
2018-04-08T13:53:09.104Z,69.20
2018-04-08T13:55:36.851Z,69.40
2018-04-08T13:58:04.703Z,69.50
2018-04-08T14:00:32.556Z,69.80
2018-04-08T14:03:00.306Z,69.80
2018-04-08T14:05:28.162Z,69.80
2018-04-08T14:07:55.905Z,70.30
2018-04-08T14:10:23.700Z,70.50
2018-04-08T14:12:51.509Z,68.20
2018-04-08T14:15:19.361Z,69.00
2018-04-08T14:17:47.112Z,68.00
2018-04-08T14:20:14.962Z,68.50
2018-04-08T14:22:42.713Z,68.40
2018-04-08T14:25:10.564Z,69.10
2018-04-08T14:27:38.415Z,68.20
2018-04-08T14:30:06.266Z,69.70
2018-04-08T14:32:34.016Z,65.50
2018-04-08T14:35:01.867Z,66.40
2018-04-08T14:37:29.632Z,68.00
2018-04-08T14:39:58.393Z,68.40
2018-04-08T14:42:26.248Z,68.50
2018-04-08T14:44:54.096Z,68.10
2018-04-08T14:47:21.872Z,67.50
2018-04-08T14:49:50.517Z,69.00
2018-04-08T14:52:18.265Z,68.90
2018-04-08T14:54:46.118Z,69.40
2018-04-08T14:57:13.969Z,67.60
2018-04-08T14:59:41.854Z,67.40
2018-04-08T15:02:10.327Z,68.50
2018-04-08T15:04:38.998Z,68.00
2018-04-08T15:07:06.912Z,68.00
2018-04-08T15:09:34.661Z,68.00
2018-04-08T15:12:02.410Z,67.10
2018-04-08T15:14:30.262Z,68.40
2018-04-08T15:16:58.117Z,69.90
2018-04-08T15:19:26.786Z,68.40
2018-04-08T15:21:54.861Z,65.50
2018-04-08T15:24:22.696Z,67.40
2018-04-08T15:26:50.548Z,68.60
2018-04-08T15:29:18.399Z,68.80
2018-04-08T15:31:46.256Z,68.50
2018-04-08T15:34:14.102Z,68.10
2018-04-08T15:36:41.854Z,68.50
2018-04-08T15:39:09.703Z,69.30
2018-04-08T15:41:37.453Z,69.50
2018-04-08T15:44:05.303Z,68.40
2018-04-08T15:46:33.156Z,68.50
2018-04-08T15:49:00.906Z,68.80
2018-04-08T15:51:28.837Z,70.30
2018-04-08T15:53:57.429Z,69.90
2018-04-08T15:56:25.283Z,69.70
2018-04-08T15:58:53.134Z,70.00
2018-04-08T16:01:20.883Z,70.20
2018-04-08T16:03:48.774Z,70.10
2018-04-08T16:06:16.587Z,70.10
2018-04-08T16:08:44.439Z,69.80
2018-04-08T16:11:12.188Z,69.90
2018-04-08T16:13:39.938Z,70.10
2018-04-08T16:16:07.789Z,70.40
2018-04-08T16:18:35.538Z,69.90
2018-04-08T16:21:03.391Z,70.70
2018-04-08T16:23:31.139Z,69.60
2018-04-08T16:25:58.995Z,70.10
2018-04-08T16:28:26.842Z,70.00
2018-04-08T16:30:54.799Z,70.20
2018-04-08T16:33:23.368Z,68.80
2018-04-08T16:35:51.368Z,68.70
2018-04-08T16:38:19.174Z,69.30
2018-04-08T16:40:46.924Z,69.10
2018-04-08T16:43:14.781Z,69.30
2018-04-08T16:45:42.525Z,69.40
2018-04-08T16:48:10.380Z,69.10
2018-04-08T16:50:38.128Z,68.90
2018-04-08T16:53:05.980Z,68.80
2018-04-08T16:55:34.921Z,68.60
2018-04-08T16:58:02.806Z,68.50
2018-04-08T17:00:30.659Z,68.70
2018-04-08T17:02:58.409Z,68.40
2018-04-08T17:05:26.261Z,68.20
2018-04-08T17:07:54.011Z,68.10
2018-04-08T17:10:21.863Z,68.00
2018-04-08T17:12:49.715Z,67.80
2018-04-08T17:15:17.464Z,67.60
2018-04-08T17:17:45.316Z,67.60
2018-04-08T17:20:13.110Z,67.70
2018-04-08T17:22:40.917Z,67.80
2018-04-08T17:25:08.668Z,67.60
2018-04-08T17:27:36.519Z,67.70
2018-04-08T17:30:04.370Z,65.20
2018-04-08T17:32:32.119Z,66.50
2018-04-08T17:34:59.969Z,66.40
2018-04-08T17:37:27.821Z,66.30
2018-04-08T17:39:56.493Z,66.20
2018-04-08T17:42:24.451Z,66.40
2018-04-08T17:44:52.305Z,66.20
2018-04-08T17:47:20.153Z,66.00
2018-04-08T17:49:48.007Z,65.80
2018-04-08T17:52:15.803Z,65.40
2018-04-08T17:54:43.617Z,65.00
2018-04-08T17:57:11.298Z,64.80
2018-04-08T17:59:39.105Z,64.10
2018-04-08T18:02:06.809Z,64.50
2018-04-08T18:04:34.540Z,64.30
2018-04-08T18:07:03.076Z,64.30
2018-04-08T18:09:30.922Z,64.30
2018-04-08T18:11:58.665Z,64.70
2018-04-08T18:14:27.443Z,65.00
2018-04-08T18:16:55.294Z,65.20
2018-04-08T18:19:22.991Z,65.30
2018-04-08T18:21:50.668Z,65.60
2018-04-08T18:24:18.395Z,65.60
2018-04-08T18:26:46.063Z,65.80
2018-04-08T18:29:13.744Z,65.90
2018-04-08T18:31:41.487Z,65.90
2018-04-08T18:34:09.235Z,65.70
2018-04-08T18:36:37.029Z,65.70
2018-04-08T18:39:04.843Z,65.70
2018-04-08T18:41:32.688Z,65.60
2018-04-08T18:44:00.540Z,65.40
2018-04-08T18:46:28.392Z,65.50
2018-04-08T18:48:56.142Z,65.20
2018-04-08T18:51:23.901Z,65.40
2018-04-08T18:53:51.746Z,65.20
2018-04-08T18:56:19.495Z,64.90
2018-04-08T18:58:47.217Z,64.90
2018-04-08T19:01:14.903Z,65.00
2018-04-08T19:03:42.602Z,64.70
2018-04-08T19:06:10.491Z,64.50
2018-04-08T19:08:38.242Z,64.20
2018-04-08T19:11:05.964Z,63.70
2018-04-08T19:13:33.743Z,63.70
2018-04-08T19:16:01.593Z,63.70
2018-04-08T19:18:29.444Z,63.80
2018-04-08T19:20:57.193Z,63.90
2018-04-08T19:23:25.131Z,63.90
2018-04-08T19:25:52.901Z,63.60
2018-04-08T19:28:20.692Z,63.80
2018-04-08T19:30:48.398Z,63.70
2018-04-08T19:33:16.145Z,63.60
2018-04-08T19:35:43.898Z,63.50
2018-04-08T19:38:11.715Z,63.50
2018-04-08T19:40:39.404Z,63.40
2018-04-08T19:43:07.150Z,63.40
2018-04-08T19:45:34.895Z,63.30
2018-04-08T19:48:02.746Z,63.20
2018-04-08T19:50:30.604Z,63.20
2018-04-08T19:52:58.550Z,63.10
2018-04-08T19:55:26.402Z,63.10
2018-04-08T19:57:54.257Z,62.70
2018-04-08T20:00:22.946Z,62.50
2018-04-08T20:02:50.738Z,62.00
2018-04-08T20:05:18.529Z,62.00
2018-04-08T20:07:46.248Z,62.40
2018-04-08T20:10:13.924Z,62.10
2018-04-08T20:12:41.640Z,61.70
2018-04-08T20:15:09.317Z,61.80
2018-04-08T20:17:37.074Z,62.00
2018-04-08T20:20:04.926Z,61.90
2018-04-08T20:22:32.609Z,61.70
2018-04-08T20:25:01.120Z,61.70
2018-04-08T20:27:28.907Z,61.70
2018-04-08T20:29:57.465Z,62.00
2018-04-08T20:32:25.308Z,61.90
2018-04-08T20:34:53.042Z,61.70
2018-04-08T20:37:20.733Z,61.40
2018-04-08T20:39:49.274Z,61.10
2018-04-08T20:42:17.044Z,61.10
2018-04-08T20:44:44.880Z,61.00
2018-04-08T20:47:12.596Z,61.50
2018-04-08T20:49:40.433Z,61.70
2018-04-08T20:52:08.332Z,62.10
2018-04-08T20:54:36.188Z,61.90
2018-04-08T20:57:04.031Z,62.20
2018-04-08T20:59:31.885Z,62.20
2018-04-08T21:01:59.596Z,62.00
2018-04-08T21:04:27.316Z,62.00
2018-04-08T21:06:55.851Z,61.90
2018-04-08T21:09:23.580Z,61.70
2018-04-08T21:11:51.276Z,61.40
2018-04-08T21:14:19.920Z,61.00
2018-04-08T21:16:47.683Z,61.00
2018-04-08T21:19:16.152Z,61.70
2018-04-08T21:21:44.141Z,62.20
2018-04-08T21:24:11.957Z,62.00
2018-04-08T21:26:39.794Z,61.70
2018-04-08T21:29:07.643Z,61.70
2018-04-08T21:31:35.495Z,61.30
2018-04-08T21:34:03.236Z,61.20
2018-04-08T21:36:30.968Z,61.10
2018-04-08T21:38:58.794Z,61.20
2018-04-08T21:41:26.600Z,61.20
2018-04-08T21:43:54.332Z,61.40
2018-04-08T21:46:22.200Z,61.30
2018-04-08T21:48:49.888Z,61.10
2018-04-08T21:51:17.696Z,60.90
2018-04-08T21:53:45.552Z,61.00
2018-04-08T21:56:13.232Z,61.00
2018-04-08T21:58:41.865Z,60.40
2018-04-08T22:01:09.716Z,60.40
2018-04-08T22:03:37.410Z,60.30
2018-04-08T22:06:05.152Z,60.30
2018-04-08T22:08:33.596Z,60.20
2018-04-08T22:11:01.430Z,60.20
2018-04-08T22:13:29.161Z,60.30
2018-04-08T22:15:56.836Z,60.40
2018-04-08T22:18:24.685Z,60.10
2018-04-08T22:20:52.431Z,60.20
2018-04-08T22:23:20.316Z,60.10
2018-04-08T22:25:48.856Z,60.30
2018-04-08T22:28:16.702Z,60.20
2018-04-08T22:30:44.454Z,60.00
2018-04-08T22:33:12.307Z,60.20
2018-04-08T22:35:40.155Z,60.50
2018-04-08T22:38:08.010Z,60.50
2018-04-08T22:40:35.858Z,60.70
2018-04-08T22:43:03.712Z,61.10
2018-04-08T22:45:31.675Z,61.10
2018-04-08T22:47:59.622Z,61.10
2018-04-08T22:50:27.472Z,61.10
2018-04-08T22:52:56.040Z,61.00
2018-04-08T22:55:23.792Z,60.90
2018-04-08T22:57:51.642Z,61.60
2018-04-08T23:00:28.504Z,61.00
2018-04-08T23:02:56.354Z,61.00
2018-04-08T23:05:24.209Z,60.60
2018-04-08T23:07:52.061Z,60.70
2018-04-08T23:10:19.915Z,60.80
2018-04-08T23:12:47.764Z,60.70
2018-04-08T23:15:15.616Z,60.40
2018-04-08T23:17:43.467Z,60.50
2018-04-08T23:20:11.319Z,60.30
2018-04-08T23:22:39.172Z,60.50
2018-04-08T23:25:07.026Z,60.50
2018-04-08T23:27:34.878Z,60.50
2018-04-08T23:30:03.493Z,60.40
2018-04-08T23:32:31.294Z,60.40
2018-04-08T23:34:59.154Z,60.60
2018-04-08T23:37:26.904Z,60.20
2018-04-08T23:39:54.750Z,59.90
2018-04-08T23:42:22.601Z,59.80
2018-04-08T23:44:50.454Z,59.70
2018-04-08T23:47:18.305Z,59.60
2018-04-08T23:49:46.156Z,59.50
2018-04-08T23:52:13.906Z,59.90
2018-04-08T23:54:41.758Z,60.20
2018-04-08T23:57:09.506Z,61.30
2018-04-08T23:59:37.358Z,60.20
